Terminal Aerodrome Forecast
Issued by NWS

Home | Current Version | Previous Version | Text Only | Print | Product List | Glossary On
Versions: 1 2 3 4 5 6 7 8 9 10 11 12
124
FTUS45 KABQ 182339
TAFLVS
TAF
KLVS 182339Z 1900/1924 12007KT P6SM BKN200
     FM190500 04006KT P6SM BKN200
     FM191700 18007KT P6SM BKN120
     FM192100 20012G20KT P6SM BKN100=

USA.gov is the U.S. government's official web portal to all federal, state and local government web resources and services.